createdAt,value
2022-12-05T00:02:45.517Z,19.85
2022-12-05T00:05:31.727Z,19.55
2022-12-05T00:08:18.098Z,20.15
2022-12-05T00:11:03.964Z,21.13
2022-12-05T00:13:50.164Z,20.83
2022-12-05T00:16:38.630Z,20.83
2022-12-05T00:19:24.109Z,19.40
2022-12-05T00:22:09.532Z,20.58
2022-12-05T00:24:55.026Z,21.15
2022-12-05T00:27:40.630Z,20.52
2022-12-05T00:30:26.239Z,21.92
2022-12-05T00:33:11.824Z,20.13
2022-12-05T00:36:03.137Z,20.98
2022-12-05T00:38:49.285Z,20.42
2022-12-05T00:41:34.789Z,21.98
2022-12-05T00:44:20.263Z,20.42
2022-12-05T00:47:51.600Z,19.73
2022-12-05T00:50:37.336Z,20.85
2022-12-05T00:53:22.795Z,20.92
2022-12-05T00:56:13.794Z,19.58
2022-12-05T00:59:00.944Z,23.70
2022-12-05T01:01:48.258Z,22.40
2022-12-05T01:04:34.143Z,21.38
2022-12-05T01:07:19.477Z,22.58
2022-12-05T01:10:05.794Z,21.15
2022-12-05T01:12:51.098Z,21.52
2022-12-05T01:15:37.780Z,21.65
2022-12-05T01:18:24.473Z,22.08
2022-12-05T01:21:10.024Z,22.20
2022-12-05T01:23:56.590Z,22.50
2022-12-05T01:26:43.444Z,22.73
2022-12-05T01:29:28.688Z,22.83
2022-12-05T01:32:14.442Z,21.55
2022-12-05T01:35:00.217Z,23.17
2022-12-05T01:37:45.969Z,24.63
2022-12-05T01:40:32.739Z,23.00
2022-12-05T01:43:18.910Z,22.88
2022-12-05T01:46:04.404Z,24.20
2022-12-05T01:48:51.904Z,22.48
2022-12-05T01:51:40.451Z,21.88
2022-12-05T01:54:26.223Z,21.10
2022-12-05T01:57:13.136Z,23.13
2022-12-05T02:00:12.268Z,22.60
2022-12-05T02:03:01.961Z,21.67
2022-12-05T02:05:53.686Z,23.33
2022-12-05T02:08:40.245Z,21.80
2022-12-05T02:11:28.476Z,21.15
2022-12-05T02:14:43.646Z,21.88
2022-12-05T02:17:51.196Z,23.08
2022-12-05T02:20:50.343Z,21.65
2022-12-05T02:24:02.952Z,22.73
2022-12-05T02:27:13.001Z,21.80
2022-12-05T02:30:23.608Z,22.92
2022-12-05T02:33:33.682Z,22.70
2022-12-05T02:36:28.788Z,24.65
2022-12-05T02:39:37.048Z,21.52
2022-12-05T02:42:36.831Z,22.40
2022-12-05T02:45:27.519Z,20.60
2022-12-05T02:48:14.330Z,21.45
2022-12-05T02:51:01.852Z,21.75
2022-12-05T02:53:49.543Z,21.17
2022-12-05T02:56:37.954Z,20.83
2022-12-05T02:59:23.849Z,21.60
2022-12-05T03:02:22.607Z,20.65
2022-12-05T03:05:40.039Z,21.70
2022-12-05T03:08:31.441Z,21.85
2022-12-05T03:11:16.927Z,21.55
2022-12-05T03:14:06.473Z,20.52
2022-12-05T03:16:58.986Z,20.67
2022-12-05T03:19:49.779Z,19.03
2022-12-05T03:22:41.608Z,21.65
2022-12-05T03:26:03.170Z,21.02
2022-12-05T03:29:16.991Z,20.52
2022-12-05T03:32:16.122Z,21.48
2022-12-05T03:35:01.493Z,19.98
2022-12-05T03:38:11.383Z,20.33
2022-12-05T03:41:17.989Z,20.20
2022-12-05T03:44:12.328Z,19.30
2022-12-05T03:47:14.750Z,17.48
2022-12-05T03:50:06.252Z,19.02
2022-12-05T03:53:18.751Z,18.42
2022-12-05T03:56:13.130Z,20.55
2022-12-05T03:59:28.006Z,18.80
2022-12-05T04:02:28.506Z,19.00
2022-12-05T04:05:43.735Z,19.15
2022-12-05T04:08:45.187Z,18.23
2022-12-05T04:11:34.697Z,18.38
2022-12-05T04:14:30.463Z,18.35
2022-12-05T04:17:34.233Z,18.35
2022-12-05T04:21:00.615Z,19.65
2022-12-05T04:24:06.733Z,19.92
2022-12-05T04:27:04.421Z,16.83
2022-12-05T04:30:02.624Z,19.05
2022-12-05T04:33:10.378Z,17.88
2022-12-05T04:36:03.139Z,18.38
2022-12-05T04:39:25.321Z,17.15
2022-12-05T04:42:20.375Z,18.75
2022-12-05T04:45:09.399Z,18.48
2022-12-05T04:48:04.128Z,19.90
2022-12-05T04:50:51.724Z,17.55
2022-12-05T04:53:37.271Z,18.67
2022-12-05T04:56:27.203Z,18.83
2022-12-05T04:59:12.922Z,18.25
2022-12-05T05:02:07.542Z,18.40
2022-12-05T05:04:54.680Z,17.08
2022-12-05T05:07:49.116Z,18.98
2022-12-05T05:10:50.584Z,18.63
2022-12-05T05:13:36.002Z,16.20
2022-12-05T05:16:27.792Z,16.25
2022-12-05T05:19:13.232Z,17.25
2022-12-05T05:21:58.726Z,15.20
2022-12-05T05:24:44.489Z,17.88
2022-12-05T05:27:30.004Z,16.00
2022-12-05T05:30:15.733Z,16.48
2022-12-05T05:33:01.042Z,15.82
2022-12-05T05:35:46.691Z,16.17
2022-12-05T05:38:36.115Z,15.65
2022-12-05T05:41:33.120Z,16.05
2022-12-05T05:44:18.678Z,15.77
2022-12-05T05:47:04.322Z,17.17
2022-12-05T05:49:49.865Z,15.27
2022-12-05T05:52:36.924Z,17.50
2022-12-05T05:55:22.447Z,16.60
2022-12-05T05:58:08.717Z,16.23
2022-12-05T06:00:54.092Z,16.42
2022-12-05T06:03:40.040Z,17.15
2022-12-05T06:06:26.426Z,15.77
2022-12-05T06:09:11.710Z,17.13
2022-12-05T06:11:57.173Z,15.90
2022-12-05T06:14:42.758Z,16.27
2022-12-05T06:17:28.349Z,17.77
2022-12-05T06:20:14.275Z,17.60
2022-12-05T06:22:59.749Z,16.02
2022-12-05T06:25:54.391Z,18.48
2022-12-05T06:28:40.040Z,15.95
2022-12-05T06:31:28.376Z,16.75
2022-12-05T06:34:14.054Z,15.70
2022-12-05T06:37:00.082Z,17.17
2022-12-05T06:39:46.539Z,16.27
2022-12-05T06:42:32.088Z,17.35
2022-12-05T06:45:17.759Z,18.45
2022-12-05T06:48:03.225Z,16.23
2022-12-05T06:50:52.958Z,16.17
2022-12-05T06:53:38.728Z,16.80
2022-12-05T06:56:24.153Z,15.32
2022-12-05T06:59:09.545Z,16.38
2022-12-05T07:01:55.006Z,15.13
2022-12-05T07:04:40.497Z,15.25
2022-12-05T07:07:25.926Z,16.25
2022-12-05T07:10:11.805Z,16.25
2022-12-05T07:12:57.361Z,15.80
2022-12-05T07:15:42.931Z,15.93
2022-12-05T07:18:29.052Z,15.90
2022-12-05T07:21:16.369Z,16.40
2022-12-05T07:24:01.761Z,14.40
2022-12-05T07:26:47.327Z,15.48
2022-12-05T07:29:32.913Z,15.18
2022-12-05T07:32:18.343Z,13.30
2022-12-05T07:35:03.661Z,13.93
2022-12-05T07:37:49.357Z,14.88
2022-12-05T07:40:34.833Z,13.85
2022-12-05T07:43:20.660Z,14.38
2022-12-05T07:46:08.849Z,13.50
2022-12-05T07:48:55.008Z,13.13
2022-12-05T07:51:41.342Z,14.27
2022-12-05T07:54:27.250Z,13.55
2022-12-05T07:57:12.414Z,11.98
2022-12-05T07:59:58.303Z,12.32
2022-12-05T08:02:44.243Z,12.30
2022-12-05T08:05:30.416Z,13.55
2022-12-05T08:08:15.959Z,13.43
2022-12-05T08:11:07.062Z,14.63
2022-12-05T08:13:53.568Z,13.65
2022-12-05T08:16:39.183Z,12.60
2022-12-05T08:19:24.796Z,11.63
2022-12-05T08:22:10.438Z,12.75
2022-12-05T08:24:56.551Z,13.70
2022-12-05T08:27:42.003Z,13.50
2022-12-05T08:30:27.534Z,12.40
2022-12-05T08:33:13.040Z,12.80
2022-12-05T08:36:10.762Z,12.68
2022-12-05T08:39:01.669Z,13.25
2022-12-05T08:41:48.039Z,11.85
2022-12-05T08:44:33.400Z,13.35
2022-12-05T08:47:18.921Z,12.07
2022-12-05T08:50:04.605Z,12.10
2022-12-05T08:52:49.834Z,12.82
2022-12-05T08:55:35.982Z,10.90
2022-12-05T08:58:21.438Z,12.95
2022-12-05T09:01:09.248Z,12.02
2022-12-05T09:03:54.734Z,10.68
2022-12-05T09:06:40.944Z,11.27
2022-12-05T09:09:26.481Z,11.30
2022-12-05T09:12:12.009Z,11.57
2022-12-05T09:14:57.772Z,11.45
2022-12-05T09:17:44.918Z,12.30
2022-12-05T09:20:30.956Z,12.50
2022-12-05T09:23:16.847Z,10.93
2022-12-05T09:26:03.180Z,11.80
2022-12-05T09:28:49.428Z,12.00
2022-12-05T09:31:36.665Z,12.13
2022-12-05T09:34:22.993Z,12.13
2022-12-05T09:37:30.904Z,12.35
2022-12-05T09:40:18.322Z,11.43
2022-12-05T09:43:08.298Z,11.20
2022-12-05T09:46:24.528Z,11.93
2022-12-05T09:49:12.826Z,11.02
2022-12-05T09:52:00.141Z,13.07
2022-12-05T09:54:45.447Z,12.48
2022-12-05T09:57:38.624Z,11.05
2022-12-05T10:03:21.372Z,10.80
2022-12-05T10:06:25.425Z,9.82
2022-12-05T10:09:54.595Z,11.20
2022-12-05T10:12:50.769Z,11.57
2022-12-05T10:15:50.176Z,10.98
2022-12-05T10:18:50.872Z,10.73
2022-12-05T10:22:04.596Z,10.10
2022-12-05T10:24:55.770Z,11.88
2022-12-05T10:28:01.542Z,9.43
2022-12-05T10:30:48.587Z,10.95
2022-12-05T10:33:43.593Z,10.52
2022-12-05T10:36:30.578Z,12.52
2022-12-05T10:39:16.506Z,10.88
2022-12-05T10:42:02.156Z,11.57
2022-12-05T10:44:50.809Z,11.18
2022-12-05T10:47:36.629Z,10.30
2022-12-05T10:50:30.452Z,11.38
2022-12-05T10:53:19.652Z,10.65
2022-12-05T10:56:43.102Z,11.00
2022-12-05T10:59:47.225Z,11.07
2022-12-05T11:02:34.613Z,10.77
2022-12-05T11:05:31.810Z,10.65
2022-12-05T11:09:03.089Z,11.23
2022-12-05T11:11:38.901Z,10.30
2022-12-05T11:14:26.314Z,9.75
2022-12-05T11:17:27.481Z,10.82
2022-12-05T11:20:19.095Z,10.48
2022-12-05T11:23:29.901Z,10.13
2022-12-05T11:26:34.444Z,8.48
2022-12-05T11:29:30.737Z,9.10
2022-12-05T11:32:22.912Z,9.85
2022-12-05T11:35:28.853Z,9.60
2022-12-05T11:38:17.506Z,9.10
2022-12-05T11:41:35.136Z,9.57
2022-12-05T11:44:29.144Z,9.05
2022-12-05T11:47:39.149Z,9.88
2022-12-05T11:50:57.713Z,9.38
2022-12-05T11:54:07.305Z,9.45
2022-12-05T11:56:57.007Z,10.13
2022-12-05T12:00:07.394Z,10.02
2022-12-05T12:03:33.070Z,9.30
2022-12-05T12:06:33.716Z,9.65
2022-12-05T12:09:42.268Z,10.77
2022-12-05T12:12:46.657Z,8.88
2022-12-05T12:15:50.627Z,10.35
2022-12-05T12:19:07.177Z,10.10
2022-12-05T12:22:10.483Z,9.93
2022-12-05T12:25:17.482Z,10.93
2022-12-05T12:28:27.156Z,10.32
2022-12-05T12:31:12.576Z,10.50
2022-12-05T12:34:42.253Z,10.40
2022-12-05T12:37:56.924Z,10.23
2022-12-05T12:40:55.760Z,8.75
2022-12-05T12:44:04.292Z,9.05
2022-12-05T12:47:21.512Z,9.85
2022-12-05T12:50:25.605Z,10.48
2022-12-05T12:53:32.635Z,9.10
2022-12-05T12:56:38.743Z,10.20
2022-12-05T12:59:23.941Z,9.00
2022-12-05T13:02:22.146Z,10.77
2022-12-05T13:05:38.535Z,7.63
2022-12-05T13:08:56.812Z,8.07
2022-12-05T13:11:44.536Z,8.25
2022-12-05T13:14:32.346Z,9.15
2022-12-05T13:17:20.928Z,7.90
2022-12-05T13:20:07.068Z,8.82
2022-12-05T13:22:53.369Z,9.68
2022-12-05T13:25:40.492Z,8.30
2022-12-05T13:28:32.978Z,9.15
2022-12-05T13:31:19.665Z,8.17
2022-12-05T13:34:05.992Z,8.43
2022-12-05T13:37:09.771Z,7.40
2022-12-05T13:40:15.763Z,7.35
2022-12-05T13:43:03.129Z,6.65
2022-12-05T13:46:08.941Z,6.28
2022-12-05T13:49:06.825Z,5.53
2022-12-05T13:51:54.625Z,6.55
2022-12-05T13:55:01.385Z,4.60
2022-12-05T13:57:53.202Z,4.75
2022-12-05T14:00:39.634Z,4.35
2022-12-05T14:03:49.114Z,4.40
2022-12-05T14:06:38.669Z,5.30
2022-12-05T14:09:29.028Z,4.50
2022-12-05T14:12:29.492Z,5.43
2022-12-05T14:15:31.555Z,4.88
2022-12-05T14:18:24.864Z,5.40
2022-12-05T14:21:29.539Z,5.35
2022-12-05T14:24:32.421Z,4.88
2022-12-05T14:27:41.296Z,5.13
2022-12-05T14:30:42.224Z,4.90
2022-12-05T14:33:28.190Z,5.03
2022-12-05T14:36:30.868Z,5.75
2022-12-05T14:39:38.208Z,4.47
2022-12-05T14:42:29.866Z,5.65
2022-12-05T14:45:33.104Z,5.85
2022-12-05T14:48:18.368Z,5.30
2022-12-05T14:51:32.956Z,4.43
2022-12-05T14:54:19.644Z,5.70
2022-12-05T14:57:18.601Z,5.32
2022-12-05T15:00:07.054Z,4.97
2022-12-05T15:02:55.517Z,5.43
2022-12-05T15:05:43.873Z,5.13
2022-12-05T15:08:34.812Z,5.20
2022-12-05T15:11:29.615Z,4.80
2022-12-05T15:14:22.114Z,4.78
2022-12-05T15:17:16.108Z,5.13
2022-12-05T15:20:40.881Z,5.15
2022-12-05T15:23:46.324Z,4.47
2022-12-05T15:26:48.061Z,5.38
2022-12-05T15:29:35.390Z,3.90
2022-12-05T15:32:25.632Z,5.53
2022-12-05T15:35:15.078Z,4.50
2022-12-05T15:38:23.844Z,3.75
2022-12-05T15:41:18.609Z,4.38
2022-12-05T15:44:05.443Z,4.20
2022-12-05T15:46:55.903Z,4.45
2022-12-05T15:49:41.177Z,4.30
2022-12-05T15:52:41.925Z,4.43
2022-12-05T15:55:38.187Z,4.80
2022-12-05T15:58:51.411Z,4.70
2022-12-05T16:01:51.768Z,4.13
2022-12-05T16:04:46.878Z,5.10
2022-12-05T16:07:35.662Z,4.43
2022-12-05T16:10:24.694Z,4.93
2022-12-05T16:13:16.427Z,4.38
2022-12-05T16:16:05.534Z,4.15
2022-12-05T16:18:54.741Z,4.20
2022-12-05T16:21:45.059Z,3.95
2022-12-05T16:24:32.782Z,4.20
2022-12-05T16:27:33.300Z,3.72
2022-12-05T16:30:24.388Z,4.18
2022-12-05T16:33:15.928Z,3.85
2022-12-05T16:36:12.601Z,3.92
2022-12-05T16:39:07.567Z,3.47
2022-12-05T16:41:53.490Z,4.05
2022-12-05T16:45:02.238Z,3.78
2022-12-05T16:47:54.111Z,5.00
2022-12-05T16:50:40.107Z,3.60
2022-12-05T16:53:32.359Z,4.10
2022-12-05T16:56:27.774Z,3.55
2022-12-05T16:59:45.569Z,3.20
2022-12-05T17:02:31.077Z,3.50
2022-12-05T17:05:17.486Z,3.50
2022-12-05T17:08:03.625Z,3.90
2022-12-05T17:10:50.780Z,3.83
2022-12-05T17:13:36.931Z,3.33
2022-12-05T17:16:23.666Z,3.55
2022-12-05T17:19:12.703Z,3.38
2022-12-05T17:21:58.401Z,3.25
2022-12-05T17:24:44.123Z,3.42
2022-12-05T17:27:29.823Z,3.25
2022-12-05T17:30:15.737Z,3.67
2022-12-05T17:33:01.095Z,3.28
2022-12-05T17:35:47.091Z,3.47
2022-12-05T17:38:32.463Z,4.07
2022-12-05T17:41:21.120Z,3.22
2022-12-05T17:44:06.403Z,3.83
2022-12-05T17:46:52.085Z,3.78
2022-12-05T17:49:37.393Z,3.97
2022-12-05T17:52:22.963Z,3.45
2022-12-05T17:55:42.320Z,3.65
2022-12-05T17:58:27.687Z,4.07
2022-12-05T18:01:16.196Z,4.25
2022-12-05T18:04:01.895Z,4.13
2022-12-05T18:06:47.381Z,4.72
2022-12-05T18:09:33.016Z,3.60
2022-12-05T18:12:18.648Z,4.70
2022-12-05T18:15:05.253Z,3.92
2022-12-05T18:17:50.558Z,4.20
2022-12-05T18:20:36.321Z,4.57
2022-12-05T18:23:21.740Z,4.80
2022-12-05T18:26:11.535Z,4.47
2022-12-05T18:29:00.020Z,3.85
2022-12-05T18:31:45.544Z,4.30
2022-12-05T18:34:31.121Z,3.60
2022-12-05T18:37:18.289Z,4.93
2022-12-05T18:40:05.325Z,3.95
2022-12-05T18:42:50.830Z,4.55
2022-12-05T18:45:36.298Z,4.30
2022-12-05T18:48:38.903Z,4.35
2022-12-05T18:51:26.487Z,4.97
2022-12-05T18:54:11.614Z,4.35
2022-12-05T18:56:57.246Z,4.10
2022-12-05T18:59:42.643Z,4.82
2022-12-05T19:02:29.282Z,4.40
2022-12-05T19:05:14.809Z,4.65
2022-12-05T19:08:00.247Z,5.13
2022-12-05T19:10:46.925Z,4.35
2022-12-05T19:13:32.238Z,3.90
2022-12-05T19:16:18.530Z,4.93
2022-12-05T19:19:07.969Z,4.35
2022-12-05T19:21:53.628Z,4.70
2022-12-05T19:24:38.733Z,4.72
2022-12-05T19:27:24.593Z,4.22
2022-12-05T19:30:10.750Z,4.97
2022-12-05T19:32:56.521Z,4.47
2022-12-05T19:35:42.198Z,6.05
2022-12-05T19:38:31.452Z,4.40
2022-12-05T19:41:20.241Z,4.32
2022-12-05T19:44:06.341Z,3.83
2022-12-05T19:46:53.114Z,4.00
2022-12-05T19:49:38.349Z,4.05
2022-12-05T19:52:24.031Z,4.40
2022-12-05T19:55:09.720Z,5.07
2022-12-05T19:57:55.275Z,3.80
2022-12-05T20:00:41.347Z,4.97
2022-12-05T20:03:26.924Z,4.63
2022-12-05T20:06:12.572Z,4.40
2022-12-05T20:08:59.274Z,3.90
2022-12-05T20:11:52.457Z,3.90
2022-12-05T20:14:39.766Z,4.43
2022-12-05T20:17:25.447Z,4.07
2022-12-05T20:20:11.434Z,4.68
2022-12-05T20:22:56.940Z,4.70
2022-12-05T20:25:42.660Z,4.90
2022-12-05T20:28:28.921Z,4.70
2022-12-05T20:31:17.035Z,3.85
2022-12-05T20:34:02.795Z,4.45
2022-12-05T20:36:48.111Z,3.47
2022-12-05T20:39:33.817Z,4.50
2022-12-05T20:42:19.084Z,4.22
2022-12-05T20:45:05.173Z,4.43
2022-12-05T20:47:51.587Z,5.55
2022-12-05T20:50:37.163Z,4.70
2022-12-05T20:53:23.531Z,5.50
2022-12-05T20:56:20.237Z,4.85
2022-12-05T20:59:07.860Z,4.45
2022-12-05T21:01:53.428Z,4.13
2022-12-05T21:04:40.986Z,4.13
2022-12-05T21:07:27.844Z,4.60
2022-12-05T21:10:13.134Z,4.93
2022-12-05T21:12:58.493Z,4.05
2022-12-05T21:15:44.687Z,4.38
2022-12-05T21:18:30.594Z,3.60
2022-12-05T21:21:20.971Z,4.30
2022-12-05T21:24:07.505Z,4.68
2022-12-05T21:26:53.214Z,4.15
2022-12-05T21:29:38.313Z,4.65
2022-12-05T21:32:23.864Z,3.97
2022-12-05T21:37:11.659Z,4.63
2022-12-05T21:39:57.494Z,3.88
2022-12-05T21:42:43.220Z,3.83
2022-12-05T21:45:28.845Z,4.15
2022-12-05T21:48:14.460Z,4.35
2022-12-05T21:51:00.145Z,3.95
2022-12-05T21:53:46.239Z,5.00
2022-12-05T21:56:32.048Z,3.42
2022-12-05T21:59:17.258Z,4.57
2022-12-05T22:02:02.926Z,3.47
2022-12-05T22:04:48.406Z,4.05
2022-12-05T22:07:34.108Z,3.58
2022-12-05T22:10:19.750Z,4.25
2022-12-05T22:13:05.210Z,3.97
2022-12-05T22:15:50.658Z,3.83
2022-12-05T22:18:36.621Z,4.45
2022-12-05T22:21:22.676Z,3.83
2022-12-05T22:24:08.337Z,3.58
2022-12-05T22:26:53.612Z,4.10
2022-12-05T22:29:39.146Z,3.78
2022-12-05T22:32:24.691Z,4.05
2022-12-05T22:35:10.074Z,4.07
2022-12-05T22:37:55.616Z,4.03
2022-12-05T22:40:40.932Z,3.90
2022-12-05T22:43:27.981Z,4.50
2022-12-05T22:46:17.859Z,4.13
2022-12-05T22:49:05.052Z,4.93
2022-12-05T22:51:50.605Z,4.13
2022-12-05T22:54:36.211Z,4.10
2022-12-05T22:57:21.730Z,3.92
2022-12-05T23:00:08.159Z,4.75
2022-12-05T23:02:53.667Z,3.78
2022-12-05T23:05:40.943Z,4.07
2022-12-05T23:08:26.411Z,4.43
2022-12-05T23:11:12.681Z,4.93
2022-12-05T23:14:02.390Z,3.38
2022-12-05T23:16:48.375Z,3.83
2022-12-05T23:19:33.802Z,4.55
2022-12-05T23:22:19.385Z,4.00
2022-12-05T23:25:05.748Z,4.15
2022-12-05T23:27:51.161Z,4.00
2022-12-05T23:30:36.605Z,3.72
2022-12-05T23:33:22.288Z,3.55
2022-12-05T23:36:09.065Z,4.50
2022-12-05T23:38:55.277Z,3.60
2022-12-05T23:41:41.190Z,3.78
2022-12-05T23:44:27.020Z,4.07
2022-12-05T23:47:13.010Z,4.30
2022-12-05T23:49:58.827Z,4.22
2022-12-05T23:52:44.642Z,4.38
2022-12-05T23:55:34.629Z,4.22
2022-12-05T23:58:20.464Z,3.55
